Flight Track Log - Related Links

Times and Time Zones

All times are in EDT time to prevent confusion due to time zone crossing. See the SWA1202 flight status page for this flight to view local times or setup timezone preferences in your user account.

Time Position Orientation Groundspeed Altitude Reporting Facility
EDT Latitude Longitude Course Direction KTS MPH feet Rate Location/Type
Tue 06:07:46 PM 33.9500 -118.4500 248° West 141 162 1,600  Level Southern California TRACON
Tue 06:08:40 PM 33.9333 -118.5000 248° West 223 257 3,300 2,368 Climbing Southern California TRACON
Tue 06:09:40 PM 33.9333 -118.5833 270° West 272 313 6,100 3,200 Climbing Southern California TRACON
Tue 06:10:40 PM 33.9333 -118.6833 270° West 285 328 9,700 3,450 Climbing Southern California TRACON
Tue 06:11:40 PM 33.9167 -118.7833 259° West 296 341 13,000 3,190 Climbing Southern California TRACON
Tue 06:12:46 PM 33.9333 -118.9000 280° West 342 394 16,400 3,238 Climbing Southern California TRACON
Tue 06:13:46 PM 34.0000 -118.9833 314° West 359 413 19,800 3,150 Climbing Southern California TRACON
Tue 06:14:46 PM 34.0833 -119.0333 334° Northwest 373 429 22,700 1,478 Climbing Southern California TRACON
Tue 06:16:00 PM 34.1581 -119.1550 307° West 364 419 23,100 1,412 Climbing Los Angeles Center
Tue 06:17:02 PM 34.2153 -119.2564 304° West 365 420 25,900 2,565 Climbing Los Angeles Center
Tue 06:18:04 PM 34.2736 -119.3594 304° West 371 427 28,400 2,565 Climbing Los Angeles Center
Tue 06:19:06 PM 34.3331 -119.4633 305° West 375 432 31,200 1,756 Climbing Los Angeles Center
Tue 06:20:07 PM 34.3900 -119.5644 304° West 366 421 32,000 927 Climbing Los Angeles Center
Tue 06:21:09 PM 34.4478 -119.6669 304° West 368 423 33,100 1,645 Climbing Los Angeles Center
Tue 06:22:11 PM 34.5222 -119.7864 307° West 370 426 35,400 1,403 Climbing Los Angeles Center
Tue 06:23:13 PM 34.6131 -119.8589 327° Northwest 386 444 36,000 290 Climbing Los Angeles Center
Tue 06:24:15 PM 34.7094 -119.9364 327° Northwest 391 450 36,000  Level Los Angeles Center
Tue 06:25:17 PM 34.7981 -120.0106 326° Northwest 389 448 36,000  Level Los Angeles Center
Tue 06:26:19 PM 34.8881 -120.0847 326° Northwest 389 448 36,000  Level Los Angeles Center
Tue 06:27:20 PM 34.9700 -120.1522 326° Northwest 389 448 36,000  Level Los Angeles Center
Tue 06:28:22 PM 35.0753 -120.2400 326° Northwest 386 444 36,000  Level Los Angeles Center
Tue 06:29:24 PM 35.1644 -120.3144 326° Northwest 389 448 36,000  Level Los Angeles Center
Tue 06:30:26 PM 35.2525 -120.3883 326° Northwest 387 445 36,000  Level Los Angeles Center
Tue 06:31:28 PM 35.3414 -120.4633 325° Northwest 390 449 36,000  Level Los Angeles Center
Tue 06:32:04 PM 35.3925 -120.5083 324° Northwest 396 456 36,000  Level Oakland Center
Tue 06:33:06 PM 35.4844 -120.5867 325° Northwest 398 458 36,000  Level Oakland Center
Tue 06:34:07 PM 35.5950 -120.6808 325° Northwest 400 460 36,000 -541 Level Oakland Center
Tue 06:35:08 PM 35.6875 -120.7592 325° Northwest 402 463 34,900 -2,311 Descending Oakland Center
Tue 06:36:09 PM 35.7686 -120.8542 316° Northwest 410 472 31,300 -3,295 Descending Oakland Center
Tue 06:37:10 PM 35.8206 -120.9772 298° West 410 472 28,200 -1,623 Descending Oakland Center
Tue 06:38:11 PM 35.9017 -121.0722 317° Northwest 407 468 28,000 -98 Descending Oakland Center
Tue 06:39:13 PM 35.9994 -121.1342 333° Northwest 396 456 28,000  Level Oakland Center
Tue 06:40:14 PM 36.0964 -121.1964 333° Northwest 393 452 28,000  Level Oakland Center
Tue 06:41:15 PM 36.1936 -121.2575 333° Northwest 392 451 28,000  Level Oakland Center
Tue 06:42:16 PM 36.2914 -121.3175 334° Northwest 392 451 28,000 -1,869 Level Oakland Center
Tue 06:43:17 PM 36.3886 -121.3797 333° Northwest 393 452 24,200 -3,689 Descending Oakland Center
Tue 06:44:18 PM 36.4878 -121.4475 331° Northwest 403 464 20,500 -3,415 Descending Oakland Center
Tue 06:45:20 PM 36.5944 -121.5411 325° Northwest 394 453 17,200 -2,488 Descending Oakland Center
Tue 06:46:21 PM 36.6778 -121.6022 330° Northwest 361 415 15,400 -1,525 Descending Oakland Center
Tue 06:47:22 PM 36.7572 -121.5669 20° North 317 365 14,100 -1,475 Descending Oakland Center
Tue 06:48:23 PM 36.8181 -121.4883 46° Northeast 304 350 12,400 -1,672 Descending Oakland Center
Tue 06:49:24 PM 36.8850 -121.4336 33° Northeast 308 354 10,700 -1,574 Descending Oakland Center
Tue 06:50:25 PM 36.9497 -121.4867 327° Northwest 280 322 9,200 -1,024 Descending Oakland Center
Tue 06:51:27 PM 37.0056 -121.5467 319° Northwest 269 310 8,600 -732 Descending Oakland Center
Tue 06:52:28 PM 37.0569 -121.6008 320° Northwest 249 287 7,700 -1,279 Descending Oakland Center
Tue 06:53:29 PM 37.1111 -121.6592 319° Northwest 254 292 6,000 -1,379 Descending Oakland Center
Tue 06:53:55 PM 37.1333 -121.6833 319° Northwest 243 280 5,700 -787 Descending Northern Cal TRACON
Tue 06:54:30 PM 37.1647 -121.7131 323° Northwest 252 290 5,200 -938 Descending Oakland Center
Tue 06:55:31 PM 37.2089 -121.7603 320° Northwest 230 265 4,200 -1,024 Descending Oakland Center
Tue 06:56:33 PM 37.2492 -121.8053 318° Northwest 209 241 3,100 -1,268 Descending Oakland Center
Tue 06:57:34 PM 37.2964 -121.8533 321° Northwest 193 222 1,600 -1,131 Descending Oakland Center
Tue 06:58:35 PM 37.3269 -121.8850 321° Northwest 167 192 800 -689 Descending Oakland Center
Tue 06:59:36 PM 37.3544 -121.9158 318° Northwest 148 170 200 -590 Descending Oakland Center
Tue 07:01:00 PM 37.3500 -121.9167 North  Level FlightAware Approximate

Login

Don't have an account? Register now (free) for customized features, flight alerts, and more!